Time;durP1;ratioP1;P1;durP2;ratioP2;P2;SDS_P1;SDS_P2;PMS_P1;PMS_P2;Temp;Humidity;BMP_temperature;BMP_pressure;BME280_temperature;BME280_humidity;BME280_pressure;Samples;Min_cycle;Max_cycle;Signal;HPM_P1;HPM_P2
2022/11/07 00:01:20;;;;;;;78.93;41.58;;;8.40;99.90;;;;;;5052188;28;20536;-62
2022/11/07 00:03:46;;;;;;;92.60;48.10;;;8.40;99.90;;;;;;5034139;28;20480;-60
2022/11/07 00:06:12;;;;;;;87.03;45.13;;;8.40;99.90;;;;;;5051936;28;20025;-61
2022/11/07 00:08:37;;;;;;;86.93;45.50;;;8.50;99.90;;;;;;5051544;28;20025;-62
2022/11/07 00:11:04;;;;;;;78.22;43.22;;;8.50;99.90;;;;;;5052049;28;20465;-63
2022/11/07 00:13:30;;;;;;;85.73;44.23;;;8.50;99.90;;;;;;5052126;28;20021;-61
2022/11/07 00:16:05;;;;;;;83.90;43.58;;;8.50;99.90;;;;;;5052124;28;20267;-65
2022/11/07 00:18:31;;;;;;;80.03;42.53;;;8.50;99.90;;;;;;5051414;28;20025;-60
2022/11/07 00:21:04;;;;;;;79.88;41.67;;;8.50;99.90;;;;;;5051543;28;20128;-62
2022/11/07 00:23:30;;;;;;;72.65;41.22;;;8.50;99.90;;;;;;5050990;28;20029;-62
2022/11/07 00:26:08;;;;;;;79.18;43.72;;;8.40;99.90;;;;;;5051786;28;20108;-60
2022/11/07 00:28:39;;;;;;;80.47;42.78;;;8.40;99.90;;;;;;5033564;28;20579;-63
2022/11/07 00:31:06;;;;;;;73.55;43.90;;;8.40;99.90;;;;;;5051761;28;20044;-60
2022/11/07 00:33:32;;;;;;;82.72;41.53;;;8.50;99.90;;;;;;5061886;28;20609;-62
2022/11/07 00:35:58;;;;;;;72.00;41.55;;;8.50;99.90;;;;;;5053537;28;20096;-60
2022/11/07 00:38:24;;;;;;;82.85;43.00;;;8.40;99.90;;;;;;5071582;28;20471;-62
2022/11/07 00:41:00;;;;;;;80.43;40.47;;;8.40;99.90;;;;;;5071228;28;20031;-62
2022/11/07 00:43:27;;;;;;;80.00;41.67;;;8.50;99.90;;;;;;5071263;28;20067;-62
2022/11/07 00:45:53;;;;;;;69.68;37.45;;;8.50;99.90;;;;;;5071274;28;20021;-61
2022/11/07 00:48:18;;;;;;;74.10;38.78;;;8.50;99.90;;;;;;5071348;28;20029;-61
2022/11/07 00:50:44;;;;;;;79.10;38.35;;;8.50;99.90;;;;;;5053395;28;20029;-62
2022/11/07 00:53:10;;;;;;;73.40;40.58;;;8.50;99.90;;;;;;5071512;28;20020;-63
2022/11/07 00:55:36;;;;;;;72.57;38.10;;;8.50;99.90;;;;;;5071394;28;20549;-63
2022/11/07 00:58:01;;;;;;;76.63;38.25;;;8.50;99.90;;;;;;5071027;28;20380;-62
2022/11/07 01:00:27;;;;;;;72.72;39.15;;;8.50;99.90;;;;;;5070926;28;20391;-62
2022/11/07 01:05:38;;;;;;;81.95;39.78;;;8.40;99.90;;;;;;5070946;28;20069;-62
2022/11/07 01:08:05;;;;;;;80.45;42.70;;;8.40;99.90;;;;;;5070470;28;20481;-62
2022/11/07 01:10:30;;;;;;;82.72;46.00;;;8.40;99.90;;;;;;5070949;28;20539;-61
2022/11/07 01:12:56;;;;;;;89.78;50.45;;;8.40;99.90;;;;;;5070836;28;20111;-61
2022/11/07 01:15:21;;;;;;;92.60;51.90;;;8.40;99.90;;;;;;5070733;28;20033;-61
2022/11/07 01:17:47;;;;;;;93.95;53.00;;;8.40;99.90;;;;;;5058510;28;20066;-63
2022/11/07 01:20:13;;;;;;;102.97;57.25;;;8.30;99.90;;;;;;5050802;28;20056;-62
2022/11/07 01:22:38;;;;;;;103.72;59.50;;;8.30;99.90;;;;;;5051267;28;20385;-59
2022/11/07 01:25:04;;;;;;;93.70;53.67;;;8.30;99.90;;;;;;5049866;28;20056;-59
2022/11/07 01:27:30;;;;;;;103.90;58.20;;;8.20;99.90;;;;;;5050400;28;20437;-60
2022/11/07 01:29:56;;;;;;;107.93;61.10;;;8.20;99.90;;;;;;5050071;28;20484;-60
2022/11/07 01:32:21;;;;;;;97.25;55.08;;;8.20;99.90;;;;;;5050694;28;20032;-63
2022/11/07 01:34:47;;;;;;;104.03;57.22;;;8.20;99.90;;;;;;5050657;28;20028;-65
2022/11/07 01:37:13;;;;;;;95.13;52.53;;;8.20;99.90;;;;;;5050557;28;20021;-61
2022/11/07 01:39:38;;;;;;;100.13;54.38;;;8.30;99.90;;;;;;5050533;28;20033;-60
2022/11/07 01:42:04;;;;;;;93.47;53.13;;;8.20;99.90;;;;;;5050125;28;20021;-61
2022/11/07 01:44:36;;;;;;;101.55;53.75;;;8.20;99.90;;;;;;5050041;28;20479;-60
2022/11/07 01:47:02;;;;;;;98.72;51.28;;;8.30;99.90;;;;;;5050240;28;20029;-61
2022/11/07 01:49:39;;;;;;;95.75;51.13;;;8.30;99.90;;;;;;5050345;28;20036;-61
2022/11/07 01:52:10;;;;;;;99.90;50.47;;;8.30;99.90;;;;;;5050051;28;20021;-63
2022/11/07 01:54:40;;;;;;;107.00;55.35;;;8.40;99.90;;;;;;5049967;28;20032;-61
2022/11/07 01:57:11;;;;;;;97.60;53.38;;;8.40;99.90;;;;;;5050106;28;20033;-61
2022/11/07 01:59:39;;;;;;;94.72;50.85;;;8.40;99.90;;;;;;5032119;28;20017;-62
2022/11/07 02:02:04;;;;;;;;;;;8.40;99.90;;;;;;5050592;28;20503;-60
2022/11/07 02:04:30;;;;;;;104.35;52.05;;;8.50;99.90;;;;;;5049922;28;19917;-61
2022/11/07 02:07:18;;;;;;;97.90;51.13;;;8.50;99.90;;;;;;5050040;28;20083;-60
2022/11/07 02:09:45;;;;;;;94.63;48.17;;;8.50;99.90;;;;;;5031955;28;20040;-61
2022/11/07 02:12:12;;;;;;;97.10;46.47;;;8.50;99.90;;;;;;5050188;28;20029;-61
2022/11/07 02:14:37;;;;;;;86.43;43.45;;;8.50;99.90;;;;;;5049743;28;20037;-61
2022/11/07 02:17:03;;;;;;;85.03;45.90;;;8.50;99.90;;;;;;5051615;28;20033;-60
2022/11/07 02:19:46;;;;;;;93.50;45.72;;;8.50;99.90;;;;;;5069377;28;20021;-63
2022/11/07 02:22:42;;;;;;;79.72;42.65;;;8.50;99.90;;;;;;5069982;28;20101;-60
2022/11/07 02:25:12;;;;;;;79.47;42.60;;;8.40;99.90;;;;;;5069422;28;20038;-63
2022/11/07 02:27:39;;;;;;;80.13;40.78;;;8.40;99.90;;;;;;5069347;28;20443;-60
2022/11/07 02:30:13;;;;;;;;;;;8.50;99.90;;;;;;5057509;28;20483;-59
2022/11/07 02:32:39;;;;;;;84.40;41.33;;;8.50;99.90;;;;;;5049461;28;20572;-59
2022/11/07 02:35:26;;;;;;;80.47;42.33;;;8.40;99.90;;;;;;5049853;28;20075;-61
2022/11/07 02:37:52;;;;;;;81.72;44.05;;;8.40;99.90;;;;;;5031208;28;20032;-59
2022/11/07 02:40:18;;;;;;;94.13;46.05;;;8.50;99.90;;;;;;5037610;28;20041;-61
2022/11/07 02:42:45;;;;;;;80.47;44.22;;;8.50;99.90;;;;;;5029667;28;20038;-61
2022/11/07 02:45:16;;;;;;;81.63;43.42;;;8.60;99.90;;;;;;5029852;28;20045;-62
2022/11/07 02:47:41;;;;;;;81.75;44.83;;;8.50;99.90;;;;;;5029590;28;20044;-63
2022/11/07 02:50:13;;;;;;;77.25;41.15;;;8.60;99.90;;;;;;5043767;28;20384;-62
2022/11/07 02:52:39;;;;;;;82.25;41.67;;;8.60;99.90;;;;;;5049654;28;20025;-61
2022/11/07 02:55:07;;;;;;;72.47;39.65;;;8.60;99.90;;;;;;5046611;28;20082;-61
2022/11/07 02:57:32;;;;;;;79.72;42.33;;;8.60;99.90;;;;;;5037429;28;20025;-62
2022/11/07 02:59:58;;;;;;;82.93;41.20;;;8.60;99.90;;;;;;5049499;28;20570;-61
2022/11/07 03:02:24;;;;;;;81.47;39.85;;;8.60;99.90;;;;;;5047618;28;20431;-63
2022/11/07 03:04:51;;;;;;;61.85;38.17;;;8.60;99.90;;;;;;5048639;28;20064;-60
2022/11/07 03:07:16;;;;;;;68.15;38.22;;;8.60;99.90;;;;;;5047871;28;20051;-59
2022/11/07 03:09:42;;;;;;;77.03;38.85;;;8.60;99.90;;;;;;5047338;28;20437;-61
2022/11/07 03:12:08;;;;;;;68.57;37.97;;;8.60;99.90;;;;;;5048193;28;20104;-61
2022/11/07 03:14:34;;;;;;;77.57;40.00;;;8.60;99.90;;;;;;5047913;28;20546;-59
2022/11/07 03:16:59;;;;;;;82.32;39.50;;;8.60;99.90;;;;;;5048377;28;20013;-61
2022/11/07 03:19:25;;;;;;;70.30;40.13;;;8.60;99.90;;;;;;5029557;28;20415;-61
2022/11/07 03:21:51;;;;;;;72.00;40.22;;;8.50;99.90;;;;;;5046331;28;20053;-60
2022/11/07 03:24:17;;;;;;;82.75;40.35;;;8.50;99.90;;;;;;5046207;28;20044;-59
2022/11/07 03:26:43;;;;;;;87.28;42.33;;;8.60;99.90;;;;;;5047815;28;20017;-61
2022/11/07 03:29:09;;;;;;;81.72;43.38;;;8.60;99.90;;;;;;5047399;28;20459;-62
2022/11/07 03:31:35;;;;;;;79.07;42.22;;;8.60;99.90;;;;;;5038285;28;20021;-61
2022/11/07 03:34:01;;;;;;;84.55;43.25;;;8.50;99.90;;;;;;5050923;28;20032;-61
2022/11/07 03:36:26;;;;;;;82.50;48.67;;;8.60;99.90;;;;;;5050825;28;20024;-61
2022/11/07 03:38:52;;;;;;;92.13;50.33;;;8.50;99.90;;;;;;5050614;28;20491;-61
2022/11/07 03:41:18;;;;;;;90.10;50.97;;;8.60;99.90;;;;;;5050548;28;20047;-62
2022/11/07 03:43:44;;;;;;;88.97;47.05;;;8.60;99.90;;;;;;5049507;28;20044;-63
2022/11/07 03:46:11;;;;;;;88.32;50.67;;;8.60;99.90;;;;;;5049929;28;20083;-61
2022/11/07 03:48:36;;;;;;;82.35;48.22;;;8.50;99.90;;;;;;5050166;28;20109;-60
2022/11/07 03:51:03;;;;;;;82.57;48.88;;;8.50;99.90;;;;;;5050488;28;20108;-59
2022/11/07 03:53:28;;;;;;;85.93;46.97;;;8.50;99.90;;;;;;5050227;28;20029;-62
2022/11/07 03:55:55;;;;;;;81.82;45.40;;;8.50;99.90;;;;;;5049928;28;20471;-61
2022/11/07 03:58:22;;;;;;;80.18;45.15;;;8.50;99.90;;;;;;5050669;28;20017;-63
2022/11/07 04:00:47;;;;;;;84.63;45.60;;;8.50;99.90;;;;;;5050527;28;20409;-60
2022/11/07 04:03:13;;;;;;;82.22;43.38;;;8.50;99.90;;;;;;5050319;28;20626;-63
2022/11/07 04:05:39;;;;;;;84.20;44.92;;;8.60;99.90;;;;;;5050688;28;20052;-62
2022/11/07 04:08:05;;;;;;;89.93;45.38;;;8.50;99.90;;;;;;5050805;28;20025;-61
2022/11/07 04:10:30;;;;;;;83.68;45.83;;;8.60;99.90;;;;;;5051128;28;20028;-60
2022/11/07 04:18:27;;;;;;;69.57;37.10;;;8.60;99.90;;;;;;5050848;28;20100;-62
2022/11/07 04:20:53;;;;;;;68.28;38.95;;;8.50;99.90;;;;;;5005885;28;1296707;-63
2022/11/07 04:23:18;;;;;;;68.90;35.35;;;8.50;99.90;;;;;;5052334;28;20040;-61
2022/11/07 04:28:28;;;;;;;63.78;34.30;;;8.50;99.90;;;;;;5051904;28;20075;-61
2022/11/07 04:30:54;;;;;;;63.78;34.75;;;8.50;99.90;;;;;;5051453;28;20029;-61
2022/11/07 04:33:19;;;;;;;65.90;36.33;;;8.60;99.90;;;;;;5051034;28;20040;-61
2022/11/07 04:35:45;;;;;;;65.35;34.85;;;8.50;99.90;;;;;;5051045;28;20309;-63
2022/11/07 04:38:10;;;;;;;58.38;35.13;;;8.50;99.90;;;;;;5051076;28;20021;-63
2022/11/07 04:40:36;;;;;;;63.78;35.65;;;8.50;99.90;;;;;;5050876;28;20434;-60
2022/11/07 04:43:07;;;;;;;63.20;35.20;;;8.50;99.90;;;;;;5048753;28;20048;-60
2022/11/07 04:45:37;;;;;;;56.42;33.10;;;8.50;99.90;;;;;;5050386;28;20469;-61
2022/11/07 04:48:03;;;;;;;74.45;40.00;;;8.50;99.90;;;;;;5051432;28;20052;-64
2022/11/07 04:50:30;;;;;;;66.00;38.28;;;8.50;99.90;;;;;;5050699;28;20388;-63
2022/11/07 04:52:55;;;;;;;72.10;39.50;;;8.40;99.90;;;;;;5051184;28;20629;-60
2022/11/07 04:55:24;;;;;;;70.85;39.63;;;8.40;99.90;;;;;;5033363;28;20032;-61
2022/11/07 04:57:51;;;;;;;66.80;38.17;;;8.30;99.90;;;;;;5051385;28;20032;-65
2022/11/07 05:00:18;;;;;;;77.65;39.20;;;8.30;99.90;;;;;;5037901;28;20029;-62
2022/11/07 05:02:44;;;;;;;76.85;42.10;;;8.30;99.90;;;;;;5030893;28;20041;-59
2022/11/07 05:05:10;;;;;;;68.68;38.05;;;8.20;99.90;;;;;;5042669;28;20044;-57
2022/11/07 05:07:36;;;;;;;58.60;33.17;;;8.20;99.90;;;;;;5050695;28;20062;-62
2022/11/07 05:10:03;;;;;;;58.25;32.20;;;8.20;99.90;;;;;;5050586;28;20036;-63
2022/11/07 05:12:29;;;;;;;63.95;33.72;;;8.20;99.90;;;;;;5050451;28;20638;-58
2022/11/07 05:14:55;;;;;;;60.08;33.95;;;8.20;99.90;;;;;;5050001;28;20128;-60
2022/11/07 05:17:20;;;;;;;59.78;31.85;;;8.20;99.90;;;;;;5050208;28;20017;-62
2022/11/07 05:19:46;;;;;;;52.30;29.63;;;8.20;99.90;;;;;;5050775;28;20056;-65
2022/11/07 05:24:56;;;;;;;51.53;29.55;;;8.20;99.90;;;;;;5030871;28;20052;-60
2022/11/07 05:27:23;;;;;;;54.65;29.55;;;8.20;99.90;;;;;;5031225;28;20022;-62
2022/11/07 05:29:49;;;;;;;54.55;28.95;;;8.20;99.90;;;;;;5030697;28;20520;-61
2022/11/07 05:32:15;;;;;;;53.75;29.27;;;8.20;99.90;;;;;;5030454;28;20037;-61
2022/11/07 05:34:40;;;;;;;54.85;29.45;;;8.10;99.90;;;;;;5030732;28;20021;-61
2022/11/07 05:37:10;;;;;;;52.88;29.63;;;8.10;99.90;;;;;;5029516;28;20041;-65
2022/11/07 05:39:36;;;;;;;55.25;27.08;;;8.20;99.90;;;;;;5028432;28;20026;-60
2022/11/07 05:42:03;;;;;;;53.10;26.90;;;8.10;99.90;;;;;;5028757;28;20027;-59
2022/11/07 05:44:29;;;;;;;50.80;27.73;;;8.10;99.90;;;;;;5029059;28;20160;-63
2022/11/07 05:46:56;;;;;;;54.90;29.20;;;8.10;99.90;;;;;;5028915;28;20026;-66
2022/11/07 05:49:22;;;;;;;60.22;31.98;;;8.10;99.90;;;;;;5028773;28;20279;-64
2022/11/07 05:51:48;;;;;;;55.73;29.73;;;8.10;99.90;;;;;;5029952;28;20480;-62
2022/11/07 05:54:14;;;;;;;59.10;29.25;;;8.10;99.90;;;;;;5030047;28;20129;-61
2022/11/07 05:56:42;;;;;;;55.55;29.65;;;8.10;99.90;;;;;;5030164;28;20026;-63
2022/11/07 05:59:08;;;;;;;60.75;31.23;;;8.10;99.90;;;;;;5030737;28;20036;-59
2022/11/07 06:01:33;;;;;;;65.65;32.28;;;8.10;99.90;;;;;;5029693;28;20026;-60
2022/11/07 06:03:59;;;;;;;55.25;31.02;;;8.20;99.90;;;;;;5031485;28;20037;-60
2022/11/07 06:06:24;;;;;;;54.25;30.52;;;8.20;99.90;;;;;;5048348;28;20508;-65
2022/11/07 06:08:50;;;;;;;51.20;28.13;;;8.20;99.90;;;;;;5048031;28;20083;-64
2022/11/07 06:11:16;;;;;;;57.63;28.95;;;8.20;99.90;;;;;;5046807;28;20025;-65
2022/11/07 06:13:42;;;;;;;54.92;28.60;;;8.20;99.90;;;;;;5048222;28;20152;-66
2022/11/07 06:16:07;;;;;;;51.13;27.30;;;8.30;99.90;;;;;;5048792;28;20025;-64
2022/11/07 06:18:36;;;;;;;60.08;29.80;;;8.30;99.90;;;;;;5048862;28;20743;-62
2022/11/07 06:21:02;;;;;;;50.90;26.27;;;8.30;99.90;;;;;;5049085;28;20053;-64
2022/11/07 06:23:27;;;;;;;50.65;27.17;;;8.40;99.90;;;;;;5049553;28;20490;-64
2022/11/07 06:25:53;;;;;;;43.10;24.25;;;8.50;99.90;;;;;;5049844;28;20024;-63
2022/11/07 06:28:19;;;;;;;40.70;22.98;;;8.50;99.90;;;;;;5049777;28;20349;-62
2022/11/07 06:30:44;;;;;;;43.10;22.38;;;8.50;99.90;;;;;;5049805;28;20025;-63
2022/11/07 06:33:16;;;;;;;37.70;19.45;;;8.50;99.90;;;;;;5048344;28;20221;-65
2022/11/07 06:35:42;;;;;;;33.72;17.70;;;8.60;99.90;;;;;;5049407;28;20091;-64
2022/11/07 06:38:10;;;;;;;28.80;15.93;;;8.70;99.90;;;;;;5048335;28;20028;-62
2022/11/07 06:40:37;;;;;;;25.27;15.15;;;8.70;99.90;;;;;;5049580;28;20116;-62
2022/11/07 06:43:09;;;;;;;27.57;15.07;;;8.70;99.90;;;;;;5049662;28;20040;-60
2022/11/07 06:45:36;;;;;;;24.48;13.30;;;8.80;99.90;;;;;;5049310;28;20369;-63
2022/11/07 06:48:02;;;;;;;23.75;12.50;;;8.90;99.90;;;;;;5049596;28;20029;-60
2022/11/07 06:50:28;;;;;;;21.73;12.25;;;8.90;99.90;;;;;;5049440;28;20036;-66
2022/11/07 06:52:53;;;;;;;21.80;12.02;;;9.00;99.90;;;;;;5042271;28;20048;-58
2022/11/07 06:55:20;;;;;;;25.40;12.70;;;9.00;99.90;;;;;;5048436;28;20104;-60
2022/11/07 06:57:47;;;;;;;25.92;12.05;;;9.00;99.90;;;;;;5047647;28;20696;-63
2022/11/07 07:00:13;;;;;;;20.77;12.15;;;9.10;99.90;;;;;;5047706;28;20036;-61
2022/11/07 07:02:39;;;;;;;24.38;12.98;;;9.00;99.90;;;;;;5031065;28;20470;-63
2022/11/07 07:05:05;;;;;;;22.15;12.45;;;9.00;99.90;;;;;;5031000;28;20061;-62
2022/11/07 07:07:31;;;;;;;23.38;13.70;;;9.10;99.90;;;;;;5031912;28;20060;-64
2022/11/07 07:09:57;;;;;;;20.33;11.02;;;9.10;99.90;;;;;;5036484;28;20029;-63
2022/11/07 07:12:22;;;;;;;21.15;10.95;;;9.10;99.90;;;;;;5052267;28;20025;-62
2022/11/07 07:14:48;;;;;;;19.92;11.65;;;9.10;99.90;;;;;;5046202;28;20391;-64
2022/11/07 07:17:14;;;;;;;23.85;11.57;;;9.10;99.90;;;;;;5053245;28;20228;-63
2022/11/07 07:19:40;;;;;;;22.92;10.98;;;9.10;99.90;;;;;;5053340;28;20103;-63
2022/11/07 07:22:11;;;;;;;20.10;11.60;;;9.10;99.90;;;;;;5052879;28;20694;-65
2022/11/07 07:24:37;;;;;;;21.35;11.52;;;9.20;99.90;;;;;;5051865;28;20152;-60
2022/11/07 07:27:03;;;;;;;19.52;10.55;;;9.20;99.90;;;;;;5052446;28;20104;-59
2022/11/07 07:29:28;;;;;;;19.00;10.40;;;9.10;99.90;;;;;;5051863;28;20468;-60
2022/11/07 07:31:54;;;;;;;16.95;9.55;;;9.10;99.90;;;;;;5051922;28;20110;-63
2022/11/07 07:34:19;;;;;;;18.35;9.68;;;9.10;99.90;;;;;;5033809;28;20472;-64
2022/11/07 07:36:45;;;;;;;18.48;8.98;;;9.20;99.90;;;;;;5034013;28;20032;-64
2022/11/07 07:39:11;;;;;;;18.05;9.10;;;9.20;99.90;;;;;;5051551;28;20032;-63
2022/11/07 07:41:36;;;;;;;17.95;9.07;;;9.20;99.90;;;;;;5051958;28;20021;-64
2022/11/07 07:44:02;;;;;;;18.63;10.63;;;9.20;99.90;;;;;;5051952;28;20029;-61
2022/11/07 07:46:27;;;;;;;16.98;9.55;;;9.20;99.90;;;;;;5033787;28;20048;-62
2022/11/07 07:48:53;;;;;;;16.77;8.73;;;9.20;99.90;;;;;;5033577;28;20025;-62
2022/11/07 07:51:19;;;;;;;24.65;10.30;;;9.20;99.90;;;;;;5051602;28;20500;-61
2022/11/07 07:53:45;;;;;;;14.90;6.70;;;9.20;99.90;;;;;;5051878;28;20072;-61
2022/11/07 07:56:10;;;;;;;20.70;9.45;;;9.20;99.90;;;;;;5051333;28;20047;-62
2022/11/07 07:58:36;;;;;;;17.33;8.80;;;9.20;99.90;;;;;;5051607;28;20022;-63
2022/11/07 08:01:08;;;;;;;20.75;9.75;;;9.30;99.90;;;;;;5051648;28;20017;-61
2022/11/07 08:03:34;;;;;;;20.27;9.55;;;9.20;99.90;;;;;;5048950;28;20472;-61
2022/11/07 08:06:00;;;;;;;21.77;8.93;;;9.20;99.90;;;;;;5051654;28;20027;-58
2022/11/07 08:08:26;;;;;;;17.67;8.43;;;9.30;99.90;;;;;;5051499;28;20037;-63
2022/11/07 08:10:55;;;;;;;16.42;9.10;;;9.20;99.90;;;;;;5051303;28;20110;-60
2022/11/07 08:13:23;;;;;;;20.30;8.25;;;9.20;99.90;;;;;;5051221;28;20048;-63
2022/11/07 08:15:49;;;;;;;16.75;8.93;;;9.20;99.90;;;;;;5051397;28;20035;-64
2022/11/07 08:18:15;;;;;;;24.55;9.73;;;9.10;99.90;;;;;;5051534;28;20032;-65
2022/11/07 08:20:41;;;;;;;15.75;8.02;;;9.10;99.90;;;;;;5033296;28;20049;-65
2022/11/07 08:23:09;;;;;;;19.38;9.52;;;9.10;99.90;;;;;;5051404;28;20379;-65
2022/11/07 08:25:35;;;;;;;20.15;8.95;;;9.10;99.90;;;;;;5048607;28;20032;-64
2022/11/07 08:28:01;;;;;;;16.60;7.70;;;9.10;99.90;;;;;;5033176;28;20017;-63
2022/11/07 08:30:29;;;;;;;20.90;8.60;;;9.10;99.90;;;;;;5051324;28;20247;-63
2022/11/07 08:32:58;;;;;;;18.02;8.57;;;9.20;99.90;;;;;;5031055;28;20017;-63
2022/11/07 08:35:24;;;;;;;19.48;9.43;;;9.20;99.90;;;;;;5051094;28;20021;-60
2022/11/07 08:37:52;;;;;;;18.77;8.95;;;9.20;99.90;;;;;;5050663;28;20029;-61
2022/11/07 08:40:18;;;;;;;22.05;9.13;;;9.30;99.90;;;;;;5050873;28;20388;-63
2022/11/07 08:42:43;;;;;;;26.92;11.25;;;9.30;99.90;;;;;;5050963;28;20021;-61
2022/11/07 08:45:09;;;;;;;18.60;9.68;;;9.30;99.90;;;;;;5051039;28;20037;-61
2022/11/07 08:47:35;;;;;;;14.50;8.70;;;9.30;99.90;;;;;;5050949;28;20032;-59
2022/11/07 08:50:01;;;;;;;16.38;8.27;;;9.40;99.90;;;;;;5032541;28;20021;-61
2022/11/07 08:52:26;;;;;;;21.08;9.38;;;9.40;99.90;;;;;;5050930;28;20112;-65
2022/11/07 08:54:52;;;;;;;14.45;7.50;;;9.40;99.90;;;;;;5050658;28;20104;-60
2022/11/07 08:57:18;;;;;;;15.30;6.65;;;9.40;99.90;;;;;;5050724;28;20488;-59
2022/11/07 08:59:44;;;;;;;15.65;7.40;;;9.40;99.90;;;;;;4999680;28;20036;-60
2022/11/07 09:02:11;;;;;;;13.95;7.82;;;9.40;99.90;;;;;;5050395;28;20058;-60
2022/11/07 09:04:37;;;;;;;15.32;6.60;;;9.50;99.90;;;;;;5050565;28;20072;-61
2022/11/07 09:07:03;;;;;;;18.73;6.93;;;9.50;99.90;;;;;;5050498;28;20441;-62
2022/11/07 09:09:28;;;;;;;15.43;7.68;;;9.50;99.90;;;;;;5050511;28;20051;-63
2022/11/07 09:11:54;;;;;;;19.67;7.90;;;9.50;99.90;;;;;;5050217;28;20024;-65
2022/11/07 09:14:20;;;;;;;14.82;7.40;;;9.50;99.90;;;;;;5049930;28;20025;-67
2022/11/07 09:16:46;;;;;;;16.17;6.90;;;9.60;99.90;;;;;;5032241;28;20059;-65
2022/11/07 09:19:11;;;;;;;19.42;7.82;;;9.60;99.90;;;;;;5049434;28;20464;-63
2022/11/07 09:21:37;;;;;;;15.48;6.50;;;9.60;99.90;;;;;;5034119;28;20045;-62
2022/11/07 09:24:03;;;;;;;14.82;6.80;;;9.60;99.90;;;;;;5049225;28;20095;-62
2022/11/07 09:26:29;;;;;;;16.52;7.82;;;9.50;99.90;;;;;;5048375;28;20111;-60
2022/11/07 09:28:54;;;;;;;13.07;6.88;;;9.60;99.90;;;;;;5032368;28;20112;-63
2022/11/07 09:31:21;;;;;;;13.60;6.43;;;9.60;99.90;;;;;;5033371;28;20391;-61
2022/11/07 09:33:46;;;;;;;13.43;6.95;;;9.50;99.90;;;;;;5031891;28;20029;-60
2022/11/07 09:36:12;;;;;;;16.33;6.55;;;9.50;99.90;;;;;;5049403;28;20693;-61
2022/11/07 09:38:38;;;;;;;15.98;6.30;;;9.50;99.90;;;;;;5049676;28;20471;-60
2022/11/07 09:41:26;;;;;;;12.15;6.15;;;9.50;99.90;;;;;;5031547;28;20049;-61
2022/11/07 09:43:52;;;;;;;11.07;6.43;;;9.50;99.90;;;;;;5049461;28;20038;-63
2022/11/07 09:46:52;;;;;;;14.05;7.50;;;9.60;99.90;;;;;;5049780;28;20033;-64
2022/11/07 09:49:21;;;;;;;16.67;8.13;;;9.60;99.90;;;;;;5029578;28;20025;-60
2022/11/07 09:52:10;;;;;;;17.83;8.02;;;9.60;99.90;;;;;;5049361;28;20029;-61
2022/11/07 09:54:39;;;;;;;14.25;7.57;;;9.70;99.90;;;;;;5046904;28;20027;-63
2022/11/07 09:57:09;;;;;;;17.83;7.93;;;9.60;99.90;;;;;;5049612;28;20029;-63
2022/11/07 09:59:44;;;;;;;15.52;7.13;;;9.90;99.90;;;;;;5047398;28;20538;-64
2022/11/07 10:02:16;;;;;;;14.98;7.03;;;10.00;99.90;;;;;;5049175;28;20035;-62
2022/11/07 10:04:42;;;;;;;18.98;6.72;;;10.20;99.90;;;;;;5031262;28;20032;-64
2022/11/07 10:07:35;;;;;;;19.23;8.18;;;10.30;99.90;;;;;;5031073;28;20090;-60
2022/11/07 10:10:33;;;;;;;14.00;7.07;;;10.20;99.90;;;;;;5046929;28;20033;-60
2022/11/07 10:13:30;;;;;;;15.65;8.40;;;10.20;99.90;;;;;;4993622;28;20037;-62
2022/11/07 10:16:14;;;;;;;15.77;7.28;;;10.40;99.90;;;;;;5045347;28;20033;-64
2022/11/07 10:18:55;;;;;;;12.20;6.97;;;10.40;99.90;;;;;;5028311;28;20025;-64
2022/11/07 10:21:47;;;;;;;13.18;6.78;;;10.30;99.90;;;;;;5027588;28;20041;-64
2022/11/07 10:24:37;;;;;;;10.55;6.35;;;10.40;99.90;;;;;;5048094;28;20459;-64
2022/11/07 10:27:09;;;;;;;15.25;7.10;;;10.60;99.90;;;;;;5029573;28;20022;-63
2022/11/07 10:29:46;;;;;;;13.80;6.60;;;10.70;99.90;;;;;;5035405;28;20407;-65
2022/11/07 10:32:23;;;;;;;13.77;6.78;;;10.80;99.90;;;;;;5049536;28;20458;-63
2022/11/07 10:35:09;;;;;;;11.53;7.10;;;11.10;99.90;;;;;;5049507;28;20412;-62
2022/11/07 10:37:35;;;;;;;15.80;6.55;;;11.30;99.90;;;;;;5049704;28;20029;-63
2022/11/07 10:40:01;;;;;;;12.55;6.13;;;11.10;99.90;;;;;;5049721;28;20494;-63
2022/11/07 10:42:29;;;;;;;15.60;6.90;;;11.30;99.90;;;;;;5052250;28;20033;-64
2022/11/07 10:44:55;;;;;;;13.00;6.32;;;11.70;99.90;;;;;;5034210;28;20742;-64
2022/11/07 10:47:24;;;;;;;13.82;6.82;;;11.80;99.90;;;;;;5051347;28;20029;-60
2022/11/07 10:50:03;;;;;;;16.83;7.25;;;11.60;99.90;;;;;;5051066;28;20140;-67
2022/11/07 10:52:29;;;;;;;15.43;7.13;;;11.60;99.90;;;;;;5051614;28;20029;-61
2022/11/07 10:55:10;;;;;;;14.07;7.10;;;11.90;99.90;;;;;;5052129;28;20192;-67
2022/11/07 10:57:35;;;;;;;16.77;7.82;;;12.10;99.90;;;;;;5037165;28;20033;-65
2022/11/07 11:00:03;;;;;;;15.02;6.47;;;12.40;99.90;;;;;;5052890;28;20029;-67
2022/11/07 11:02:30;;;;;;;;;;;12.60;99.90;;;;;;5053792;28;20435;-60
2022/11/07 11:04:59;;;;;;;15.35;7.65;;;12.30;99.90;;;;;;5053174;28;19913;-64
2022/11/07 11:07:37;;;;;;;12.13;6.68;;;12.20;99.90;;;;;;5052937;28;20040;-64
2022/11/07 11:10:16;;;;;;;14.43;7.32;;;12.20;99.90;;;;;;5052999;28;20037;-65
2022/11/07 11:12:45;;;;;;;14.68;6.28;;;12.40;99.90;;;;;;5053344;28;20094;-63
2022/11/07 11:15:21;;;;;;;12.95;7.45;;;12.60;99.90;;;;;;5051772;28;20376;-66
2022/11/07 11:18:00;;;;;;;14.68;7.00;;;12.70;99.90;;;;;;5049765;28;20091;-63
2022/11/07 11:20:29;;;;;;;15.15;7.40;;;12.50;99.90;;;;;;5049839;28;20044;-65
2022/11/07 11:22:55;;;;;;;16.80;6.85;;;12.60;99.90;;;;;;5049983;28;20378;-63
2022/11/07 11:25:22;;;;;;;14.43;7.38;;;12.70;99.90;;;;;;5049586;28;20511;-63
2022/11/07 11:27:54;;;;;;;14.10;6.70;;;12.80;99.90;;;;;;5049440;28;20686;-59
2022/11/07 11:30:21;;;;;;;22.15;7.15;;;13.00;99.90;;;;;;5031907;28;20132;-65
2022/11/07 11:32:58;;;;;;;15.90;8.40;;;12.70;99.90;;;;;;5052016;28;20025;-66
2022/11/07 11:35:46;;;;;;;13.93;7.55;;;13.20;99.90;;;;;;5053250;28;20267;-64
2022/11/07 11:38:24;;;;;;;15.18;6.70;;;13.00;99.90;;;;;;5052769;28;20037;-64
2022/11/07 11:41:22;;;;;;;16.35;7.18;;;12.90;99.90;;;;;;5052706;28;20031;-62
2022/11/07 11:43:56;;;;;;;17.80;7.55;;;12.90;99.90;;;;;;5052793;28;20033;-65
2022/11/07 11:46:33;;;;;;;12.25;6.78;;;13.00;99.90;;;;;;5052680;28;20061;-66
2022/11/07 11:49:10;;;;;;;15.27;6.18;;;13.20;99.90;;;;;;5052744;28;20021;-65
2022/11/07 11:51:44;;;;;;;14.45;6.57;;;13.10;99.90;;;;;;5052661;28;20033;-64
2022/11/07 11:54:13;;;;;;;15.80;7.70;;;13.20;99.90;;;;;;5052515;28;20031;-63
2022/11/07 11:56:47;;;;;;;16.15;8.43;;;13.30;99.90;;;;;;5052247;28;20025;-61
2022/11/07 11:59:25;;;;;;;17.23;8.05;;;13.40;99.90;;;;;;5034412;28;20144;-63
2022/11/07 12:01:53;;;;;;;17.33;8.05;;;13.30;99.90;;;;;;5052241;28;20025;-64
2022/11/07 12:04:35;;;;;;;11.52;6.85;;;13.30;99.90;;;;;;5052337;28;20037;-61
2022/11/07 12:07:37;;;;;;;11.80;6.85;;;13.50;99.90;;;;;;5052158;28;20032;-62
2022/11/07 12:10:14;;;;;;;12.80;6.60;;;13.40;99.90;;;;;;5034054;28;20387;-63
2022/11/07 12:12:50;;;;;;;18.27;6.93;;;13.60;99.90;;;;;;5052079;28;20021;-63
2022/11/07 12:15:40;;;;;;;14.63;7.45;;;13.60;99.90;;;;;;5052414;28;20515;-65
2022/11/07 12:18:16;;;;;;;17.45;7.82;;;14.20;99.90;;;;;;5052159;28;20029;-66
2022/11/07 12:21:19;;;;;;;12.80;6.93;;;15.40;99.90;;;;;;5051772;28;20045;-65
2022/11/07 12:24:06;;;;;;;14.50;7.35;;;15.50;99.10;;;;;;5051512;28;20299;-64
2022/11/07 12:26:40;;;;;;;17.55;7.60;;;15.20;98.40;;;;;;5051836;28;20029;-64
2022/11/07 12:29:48;;;;;;;13.85;6.90;;;15.10;99.90;;;;;;5051519;28;20051;-62
2022/11/07 12:32:25;;;;;;;16.38;7.13;;;13.90;99.90;;;;;;5051759;28;20107;-61
2022/11/07 12:35:21;;;;;;;15.77;7.82;;;13.70;99.90;;;;;;5051458;28;20496;-61
2022/11/07 12:37:58;;;;;;;14.13;7.68;;;13.40;99.90;;;;;;5051418;28;20168;-59
2022/11/07 12:40:49;;;;;;;14.50;8.07;;;13.30;99.90;;;;;;5051424;28;20476;-61
2022/11/07 12:43:34;;;;;;;19.48;8.98;;;13.20;99.90;;;;;;5051235;28;20108;-59
2022/11/07 12:46:24;;;;;;;15.80;7.93;;;13.40;99.90;;;;;;5051367;28;20039;-59
2022/11/07 12:49:09;;;;;;;16.27;7.82;;;13.50;99.90;;;;;;5033360;28;20504;-64
2022/11/07 12:51:34;;;;;;;12.40;6.53;;;13.30;99.90;;;;;;5051345;28;20029;-58
2022/11/07 12:54:42;;;;;;;14.50;7.30;;;13.10;99.90;;;;;;5051150;28;20028;-62
2022/11/07 12:57:30;;;;;;;11.85;7.53;;;13.30;99.90;;;;;;5039880;28;20098;-60
2022/11/07 13:00:04;;;;;;;15.77;7.25;;;13.40;99.90;;;;;;5051361;28;20021;-63
2022/11/07 13:02:46;;;;;;;17.15;8.20;;;13.30;99.90;;;;;;5050884;28;20032;-60
2022/11/07 13:05:15;;;;;;;20.98;7.43;;;13.30;99.90;;;;;;5050172;28;20396;-66